sensor_id;sensor_type;location;lat;lon;timestamp;P1;durP1;ratioP1;P2;durP2;ratioP2
71637;SDS011;59485;43.542;-5.676;2022-12-18T05:30:49;12.13;;;7.25;;
71637;SDS011;59485;43.542;-5.676;2022-12-18T05:33:18;9.07;;;4.90;;
71637;SDS011;59485;43.542;-5.676;2022-12-18T05:35:49;7.55;;;4.03;;
71637;SDS011;59485;43.542;-5.676;2022-12-18T05:38:20;8.75;;;4.82;;
71637;SDS011;59485;43.542;-5.676;2022-12-18T05:40:47;9.70;;;4.95;;
71637;SDS011;59485;43.542;-5.676;2022-12-18T05:43:13;9.27;;;4.93;;
71637;SDS011;59485;43.542;-5.676;2022-12-18T05:45:39;9.83;;;5.10;;
71637;SDS011;59485;43.542;-5.676;2022-12-18T05:48:05;9.45;;;4.85;;
71637;SDS011;59485;43.542;-5.676;2022-12-18T05:50:38;9.43;;;4.32;;
71637;SDS011;59485;43.542;-5.676;2022-12-18T05:53:05;7.03;;;3.57;;
71637;SDS011;59485;43.542;-5.676;2022-12-18T05:55:35;8.45;;;3.30;;
71637;SDS011;59485;43.542;-5.676;2022-12-18T05:58:02;6.97;;;3.58;;
71637;SDS011;59485;43.542;-5.676;2022-12-18T06:00:29;8.85;;;3.35;;
71637;SDS011;59485;43.542;-5.676;2022-12-18T06:02:55;8.45;;;3.92;;
71637;SDS011;59485;43.542;-5.676;2022-12-18T06:05:20;8.27;;;3.97;;
71637;SDS011;59485;43.542;-5.676;2022-12-18T06:07:46;10.27;;;3.23;;
71637;SDS011;59485;43.542;-5.676;2022-12-18T06:10:11;6.95;;;3.70;;
71637;SDS011;59485;43.542;-5.676;2022-12-18T06:12:37;8.27;;;3.40;;
71637;SDS011;59485;43.542;-5.676;2022-12-18T06:15:03;6.60;;;3.60;;
71637;SDS011;59485;43.542;-5.676;2022-12-18T06:17:29;9.63;;;4.30;;
71637;SDS011;59485;43.542;-5.676;2022-12-18T06:19:56;8.65;;;4.22;;
71637;SDS011;59485;43.542;-5.676;2022-12-18T06:22:22;7.83;;;3.47;;
71637;SDS011;59485;43.542;-5.676;2022-12-18T06:24:47;8.13;;;4.18;;
71637;SDS011;59485;43.542;-5.676;2022-12-18T06:27:13;6.83;;;3.73;;
71637;SDS011;59485;43.542;-5.676;2022-12-18T06:29:39;8.48;;;3.50;;
71637;SDS011;59485;43.542;-5.676;2022-12-18T06:32:04;8.50;;;3.63;;
71637;SDS011;59485;43.542;-5.676;2022-12-18T06:34:30;8.30;;;3.40;;
71637;SDS011;59485;43.542;-5.676;2022-12-18T06:36:57;6.40;;;3.55;;
71637;SDS011;59485;43.542;-5.676;2022-12-18T06:39:23;8.10;;;3.28;;
71637;SDS011;59485;43.542;-5.676;2022-12-18T06:41:49;6.97;;;2.85;;
71637;SDS011;59485;43.542;-5.676;2022-12-18T06:44:15;7.17;;;3.50;;
71637;SDS011;59485;43.542;-5.676;2022-12-18T06:46:41;6.68;;;3.25;;
71637;SDS011;59485;43.542;-5.676;2022-12-18T06:49:06;7.30;;;2.90;;
71637;SDS011;59485;43.542;-5.676;2022-12-18T06:51:34;6.97;;;2.67;;
71637;SDS011;59485;43.542;-5.676;2022-12-18T06:54:00;7.55;;;2.58;;
71637;SDS011;59485;43.542;-5.676;2022-12-18T06:56:26;5.33;;;2.73;;
71637;SDS011;59485;43.542;-5.676;2022-12-18T06:58:51;7.13;;;2.90;;
71637;SDS011;59485;43.542;-5.676;2022-12-18T07:01:17;6.37;;;2.90;;
71637;SDS011;59485;43.542;-5.676;2022-12-18T07:03:43;8.23;;;2.90;;
71637;SDS011;59485;43.542;-5.676;2022-12-18T07:06:16;7.55;;;3.33;;
71637;SDS011;59485;43.542;-5.676;2022-12-18T07:08:43;6.53;;;3.03;;
71637;SDS011;59485;43.542;-5.676;2022-12-18T07:11:09;6.78;;;3.20;;
71637;SDS011;59485;43.542;-5.676;2022-12-18T07:13:35;8.23;;;3.60;;
71637;SDS011;59485;43.542;-5.676;2022-12-18T07:16:19;8.98;;;4.30;;
71637;SDS011;59485;43.542;-5.676;2022-12-18T07:18:46;9.70;;;4.30;;
71637;SDS011;59485;43.542;-5.676;2022-12-18T07:21:12;10.10;;;4.63;;
71637;SDS011;59485;43.542;-5.676;2022-12-18T07:23:42;10.88;;;5.63;;
71637;SDS011;59485;43.542;-5.676;2022-12-18T07:26:10;11.40;;;5.05;;
71637;SDS011;59485;43.542;-5.676;2022-12-18T07:28:37;11.15;;;7.00;;
71637;SDS011;59485;43.542;-5.676;2022-12-18T07:31:08;10.10;;;5.30;;
71637;SDS011;59485;43.542;-5.676;2022-12-18T07:33:36;10.90;;;5.50;;
71637;SDS011;59485;43.542;-5.676;2022-12-18T07:36:05;9.30;;;5.20;;
71637;SDS011;59485;43.542;-5.676;2022-12-18T07:38:32;12.02;;;5.53;;
71637;SDS011;59485;43.542;-5.676;2022-12-18T07:41:17;10.90;;;6.30;;
71637;SDS011;59485;43.542;-5.676;2022-12-18T07:43:44;12.60;;;6.10;;
71637;SDS011;59485;43.542;-5.676;2022-12-18T07:46:09;10.02;;;5.70;;
71637;SDS011;59485;43.542;-5.676;2022-12-18T07:48:36;13.32;;;5.18;;
71637;SDS011;59485;43.542;-5.676;2022-12-18T07:51:02;11.47;;;6.07;;
71637;SDS011;59485;43.542;-5.676;2022-12-18T07:53:29;9.40;;;5.18;;
71637;SDS011;59485;43.542;-5.676;2022-12-18T07:58:26;8.98;;;3.90;;
71637;SDS011;59485;43.542;-5.676;2022-12-18T08:00:52;9.70;;;3.20;;
71637;SDS011;59485;43.542;-5.676;2022-12-18T08:03:17;9.43;;;3.90;;
71637;SDS011;59485;43.542;-5.676;2022-12-18T08:05:43;9.93;;;3.72;;
71637;SDS011;59485;43.542;-5.676;2022-12-18T08:08:09;8.40;;;3.40;;
71637;SDS011;59485;43.542;-5.676;2022-12-18T08:10:35;8.57;;;3.53;;
71637;SDS011;59485;43.542;-5.676;2022-12-18T08:13:00;7.80;;;3.80;;
71637;SDS011;59485;43.542;-5.676;2022-12-18T08:15:26;6.18;;;3.22;;
71637;SDS011;59485;43.542;-5.676;2022-12-18T08:17:51;6.17;;;2.80;;
71637;SDS011;59485;43.542;-5.676;2022-12-18T08:20:17;5.80;;;2.40;;
71637;SDS011;59485;43.542;-5.676;2022-12-18T08:22:43;7.30;;;3.40;;
71637;SDS011;59485;43.542;-5.676;2022-12-18T08:25:09;5.13;;;2.30;;
71637;SDS011;59485;43.542;-5.676;2022-12-18T08:27:36;5.75;;;2.53;;
71637;SDS011;59485;43.542;-5.676;2022-12-18T08:30:02;7.43;;;2.47;;
71637;SDS011;59485;43.542;-5.676;2022-12-18T08:32:28;6.72;;;2.50;;
71637;SDS011;59485;43.542;-5.676;2022-12-18T08:34:54;5.73;;;2.33;;
71637;SDS011;59485;43.542;-5.676;2022-12-18T08:37:19;5.97;;;2.57;;
71637;SDS011;59485;43.542;-5.676;2022-12-18T08:39:45;7.80;;;3.05;;
71637;SDS011;59485;43.542;-5.676;2022-12-18T08:42:10;6.60;;;2.33;;
71637;SDS011;59485;43.542;-5.676;2022-12-18T08:44:54;6.90;;;2.97;;
71637;SDS011;59485;43.542;-5.676;2022-12-18T08:47:20;7.90;;;3.03;;
71637;SDS011;59485;43.542;-5.676;2022-12-18T08:49:45;9.63;;;2.60;;
71637;SDS011;59485;43.542;-5.676;2022-12-18T08:52:11;7.28;;;2.50;;
71637;SDS011;59485;43.542;-5.676;2022-12-18T08:54:37;7.17;;;2.97;;
71637;SDS011;59485;43.542;-5.676;2022-12-18T08:57:02;5.90;;;2.73;;
71637;SDS011;59485;43.542;-5.676;2022-12-18T08:59:28;7.63;;;3.60;;
71637;SDS011;59485;43.542;-5.676;2022-12-18T09:01:53;8.50;;;4.50;;
71637;SDS011;59485;43.542;-5.676;2022-12-18T09:04:20;7.53;;;3.42;;
71637;SDS011;59485;43.542;-5.676;2022-12-18T09:06:45;14.03;;;4.50;;
71637;SDS011;59485;43.542;-5.676;2022-12-18T09:09:11;9.15;;;5.13;;
71637;SDS011;59485;43.542;-5.676;2022-12-18T09:11:37;11.20;;;6.23;;
71637;SDS011;59485;43.542;-5.676;2022-12-18T09:14:02;9.90;;;6.22;;
71637;SDS011;59485;43.542;-5.676;2022-12-18T09:16:28;10.33;;;5.10;;
71637;SDS011;59485;43.542;-5.676;2022-12-18T09:19:03;9.70;;;5.65;;
71637;SDS011;59485;43.542;-5.676;2022-12-18T09:21:33;10.30;;;5.78;;
71637;SDS011;59485;43.542;-5.676;2022-12-18T09:24:00;9.35;;;5.93;;
71637;SDS011;59485;43.542;-5.676;2022-12-18T09:26:26;10.97;;;6.57;;
71637;SDS011;59485;43.542;-5.676;2022-12-18T09:28:52;16.83;;;10.65;;
71637;SDS011;59485;43.542;-5.676;2022-12-18T09:31:19;22.20;;;13.57;;
71637;SDS011;59485;43.542;-5.676;2022-12-18T09:33:46;21.13;;;13.15;;
71637;SDS011;59485;43.542;-5.676;2022-12-18T09:36:12;15.80;;;9.57;;
71637;SDS011;59485;43.542;-5.676;2022-12-18T09:38:39;19.45;;;8.70;;
71637;SDS011;59485;43.542;-5.676;2022-12-18T09:41:06;15.67;;;9.40;;
71637;SDS011;59485;43.542;-5.676;2022-12-18T09:43:50;14.88;;;8.60;;
71637;SDS011;59485;43.542;-5.676;2022-12-18T09:46:23;15.80;;;8.30;;
71637;SDS011;59485;43.542;-5.676;2022-12-18T09:48:54;12.47;;;7.80;;
71637;SDS011;59485;43.542;-5.676;2022-12-18T09:51:32;11.93;;;7.25;;
71637;SDS011;59485;43.542;-5.676;2022-12-18T09:54:06;12.40;;;7.40;;
71637;SDS011;59485;43.542;-5.676;2022-12-18T09:56:39;10.85;;;6.10;;
71637;SDS011;59485;43.542;-5.676;2022-12-18T09:59:08;10.32;;;5.50;;
71637;SDS011;59485;43.542;-5.676;2022-12-18T10:01:43;11.50;;;6.10;;
71637;SDS011;59485;43.542;-5.676;2022-12-18T10:04:09;10.65;;;6.05;;
71637;SDS011;59485;43.542;-5.676;2022-12-18T10:06:36;10.47;;;6.17;;
71637;SDS011;59485;43.542;-5.676;2022-12-18T10:12:54;15.48;;;5.25;;
71637;SDS011;59485;43.542;-5.676;2022-12-18T10:15:30;9.23;;;4.82;;
71637;SDS011;59485;43.542;-5.676;2022-12-18T10:18:32;10.13;;;3.77;;
71637;SDS011;59485;43.542;-5.676;2022-12-18T10:21:30;9.43;;;4.28;;
71637;SDS011;59485;43.542;-5.676;2022-12-18T10:26:31;9.15;;;3.33;;
71637;SDS011;59485;43.542;-5.676;2022-12-18T10:28:57;7.10;;;3.00;;
71637;SDS011;59485;43.542;-5.676;2022-12-18T10:31:24;6.77;;;3.27;;
71637;SDS011;59485;43.542;-5.676;2022-12-18T10:33:50;9.68;;;3.20;;
71637;SDS011;59485;43.542;-5.676;2022-12-18T10:36:16;7.30;;;3.20;;
71637;SDS011;59485;43.542;-5.676;2022-12-18T10:38:41;8.07;;;3.00;;
71637;SDS011;59485;43.542;-5.676;2022-12-18T10:46:35;8.38;;;4.05;;
71637;SDS011;59485;43.542;-5.676;2022-12-18T10:49:00;8.17;;;3.77;;
71637;SDS011;59485;43.542;-5.676;2022-12-18T10:56:29;7.80;;;3.80;;
71637;SDS011;59485;43.542;-5.676;2022-12-18T10:59:02;8.75;;;3.20;;
71637;SDS011;59485;43.542;-5.676;2022-12-18T11:01:51;6.88;;;3.08;;
71637;SDS011;59485;43.542;-5.676;2022-12-18T11:04:22;6.90;;;3.42;;
71637;SDS011;59485;43.542;-5.676;2022-12-18T11:06:57;7.57;;;3.80;;
71637;SDS011;59485;43.542;-5.676;2022-12-18T11:09:28;11.20;;;3.73;;
71637;SDS011;59485;43.542;-5.676;2022-12-18T11:11:57;12.00;;;4.00;;
71637;SDS011;59485;43.542;-5.676;2022-12-18T11:16:51;9.83;;;3.67;;
71637;SDS011;59485;43.542;-5.676;2022-12-18T11:19:37;7.07;;;3.20;;
71637;SDS011;59485;43.542;-5.676;2022-12-18T11:27:40;9.53;;;4.20;;
71637;SDS011;59485;43.542;-5.676;2022-12-18T11:33:04;9.27;;;5.15;;
71637;SDS011;59485;43.542;-5.676;2022-12-18T11:35:47;9.55;;;4.43;;
71637;SDS011;59485;43.542;-5.676;2022-12-18T11:38:31;12.85;;;5.32;;
71637;SDS011;59485;43.542;-5.676;2022-12-18T11:45:20;11.13;;;5.38;;
71637;SDS011;59485;43.542;-5.676;2022-12-18T11:47:56;15.25;;;5.38;;
71637;SDS011;59485;43.542;-5.676;2022-12-18T11:50:24;10.60;;;5.07;;
71637;SDS011;59485;43.542;-5.676;2022-12-18T11:52:53;10.20;;;5.65;;
71637;SDS011;59485;43.542;-5.676;2022-12-18T11:55:28;11.30;;;5.67;;
71637;SDS011;59485;43.542;-5.676;2022-12-18T11:58:08;10.95;;;5.85;;
71637;SDS011;59485;43.542;-5.676;2022-12-18T12:00:59;11.77;;;6.17;;
71637;SDS011;59485;43.542;-5.676;2022-12-18T12:06:24;14.57;;;6.50;;
71637;SDS011;59485;43.542;-5.676;2022-12-18T12:17:38;11.35;;;6.05;;
71637;SDS011;59485;43.542;-5.676;2022-12-18T12:23:06;11.55;;;5.85;;
71637;SDS011;59485;43.542;-5.676;2022-12-18T12:28:52;13.10;;;7.30;;
71637;SDS011;59485;43.542;-5.676;2022-12-18T12:39:23;13.50;;;6.53;;
71637;SDS011;59485;43.542;-5.676;2022-12-18T12:41:55;12.10;;;6.03;;
71637;SDS011;59485;43.542;-5.676;2022-12-18T12:45:01;12.95;;;5.82;;
71637;SDS011;59485;43.542;-5.676;2022-12-18T12:47:31;12.37;;;5.07;;
71637;SDS011;59485;43.542;-5.676;2022-12-18T12:50:02;11.10;;;4.50;;
71637;SDS011;59485;43.542;-5.676;2022-12-18T12:52:37;8.68;;;3.92;;
71637;SDS011;59485;43.542;-5.676;2022-12-18T12:55:11;6.97;;;3.10;;
71637;SDS011;59485;43.542;-5.676;2022-12-18T12:58:00;8.55;;;4.18;;
71637;SDS011;59485;43.542;-5.676;2022-12-18T13:01:16;9.27;;;3.40;;
71637;SDS011;59485;43.542;-5.676;2022-12-18T13:05:54;10.95;;;5.47;;
71637;SDS011;59485;43.542;-5.676;2022-12-18T13:08:29;9.20;;;3.75;;
71637;SDS011;59485;43.542;-5.676;2022-12-18T13:10:57;9.25;;;3.60;;
71637;SDS011;59485;43.542;-5.676;2022-12-18T13:13:49;6.83;;;2.77;;
71637;SDS011;59485;43.542;-5.676;2022-12-18T13:16:20;7.85;;;3.30;;
71637;SDS011;59485;43.542;-5.676;2022-12-18T13:18:54;9.75;;;4.03;;
71637;SDS011;59485;43.542;-5.676;2022-12-18T13:21:28;8.48;;;3.30;;
71637;SDS011;59485;43.542;-5.676;2022-12-18T13:23:55;6.55;;;2.85;;
71637;SDS011;59485;43.542;-5.676;2022-12-18T13:31:14;6.57;;;2.20;;
71637;SDS011;59485;43.542;-5.676;2022-12-18T13:34:14;6.50;;;2.25;;
71637;SDS011;59485;43.542;-5.676;2022-12-18T13:36:41;5.40;;;1.75;;
71637;SDS011;59485;43.542;-5.676;2022-12-18T13:41:35;4.88;;;1.70;;
71637;SDS011;59485;43.542;-5.676;2022-12-18T13:44:22;4.47;;;1.77;;
71637;SDS011;59485;43.542;-5.676;2022-12-18T13:46:51;6.35;;;2.35;;
71637;SDS011;59485;43.542;-5.676;2022-12-18T13:52:01;4.30;;;1.60;;
71637;SDS011;59485;43.542;-5.676;2022-12-18T13:54:37;5.80;;;1.30;;
71637;SDS011;59485;43.542;-5.676;2022-12-18T14:03:15;4.25;;;1.40;;
71637;SDS011;59485;43.542;-5.676;2022-12-18T14:05:43;3.88;;;1.30;;
71637;SDS011;59485;43.542;-5.676;2022-12-18T14:08:14;4.80;;;1.33;;
71637;SDS011;59485;43.542;-5.676;2022-12-18T14:10:41;3.55;;;1.02;;
71637;SDS011;59485;43.542;-5.676;2022-12-18T14:13:09;3.83;;;0.93;;
71637;SDS011;59485;43.542;-5.676;2022-12-18T14:20:33;3.13;;;0.90;;
71637;SDS011;59485;43.542;-5.676;2022-12-18T14:22:59;6.30;;;0.88;;
71637;SDS011;59485;43.542;-5.676;2022-12-18T14:25:26;3.45;;;0.75;;
71637;SDS011;59485;43.542;-5.676;2022-12-18T14:30:38;3.85;;;1.33;;
71637;SDS011;59485;43.542;-5.676;2022-12-18T14:33:08;4.83;;;1.73;;
71637;SDS011;59485;43.542;-5.676;2022-12-18T14:36:04;4.82;;;1.63;;
71637;SDS011;59485;43.542;-5.676;2022-12-18T14:38:32;4.38;;;1.25;;
71637;SDS011;59485;43.542;-5.676;2022-12-18T14:41:11;5.13;;;1.20;;
71637;SDS011;59485;43.542;-5.676;2022-12-18T14:43:41;4.22;;;1.23;;
71637;SDS011;59485;43.542;-5.676;2022-12-18T14:51:47;4.90;;;1.63;;
71637;SDS011;59485;43.542;-5.676;2022-12-18T14:54:15;4.60;;;1.73;;
71637;SDS011;59485;43.542;-5.676;2022-12-18T14:56:44;4.80;;;1.33;;
71637;SDS011;59485;43.542;-5.676;2022-12-18T14:59:21;3.77;;;1.40;;
71637;SDS011;59485;43.542;-5.676;2022-12-18T15:01:57;5.13;;;1.60;;
71637;SDS011;59485;43.542;-5.676;2022-12-18T15:07:04;3.53;;;0.90;;
71637;SDS011;59485;43.542;-5.676;2022-12-18T15:12:41;3.17;;;0.70;;
71637;SDS011;59485;43.542;-5.676;2022-12-18T15:17:59;4.10;;;1.00;;
71637;SDS011;59485;43.542;-5.676;2022-12-18T15:20:25;3.85;;;0.70;;
71637;SDS011;59485;43.542;-5.676;2022-12-18T15:22:50;3.23;;;0.80;;
71637;SDS011;59485;43.542;-5.676;2022-12-18T15:25:27;3.20;;;1.03;;
71637;SDS011;59485;43.542;-5.676;2022-12-18T15:27:54;3.55;;;0.93;;
71637;SDS011;59485;43.542;-5.676;2022-12-18T15:30:21;3.22;;;0.68;;
71637;SDS011;59485;43.542;-5.676;2022-12-18T15:32:48;3.33;;;0.90;;
71637;SDS011;59485;43.542;-5.676;2022-12-18T15:35:20;3.08;;;0.82;;
71637;SDS011;59485;43.542;-5.676;2022-12-18T15:37:47;3.58;;;0.80;;
71637;SDS011;59485;43.542;-5.676;2022-12-18T15:40:14;3.30;;;0.90;;
71637;SDS011;59485;43.542;-5.676;2022-12-18T15:42:42;4.28;;;1.08;;
71637;SDS011;59485;43.542;-5.676;2022-12-18T15:45:26;3.20;;;1.00;;
71637;SDS011;59485;43.542;-5.676;2022-12-18T15:47:52;3.40;;;0.90;;
71637;SDS011;59485;43.542;-5.676;2022-12-18T15:50:24;3.97;;;1.35;;
71637;SDS011;59485;43.542;-5.676;2022-12-18T15:52:51;4.87;;;1.10;;
71637;SDS011;59485;43.542;-5.676;2022-12-18T15:55:19;3.95;;;1.48;;
71637;SDS011;59485;43.542;-5.676;2022-12-18T15:58:05;3.83;;;1.10;;
71637;SDS011;59485;43.542;-5.676;2022-12-18T16:00:32;3.75;;;1.17;;
71637;SDS011;59485;43.542;-5.676;2022-12-18T16:02:59;4.50;;;1.00;;
71637;SDS011;59485;43.542;-5.676;2022-12-18T16:05:25;3.90;;;1.00;;
71637;SDS011;59485;43.542;-5.676;2022-12-18T16:07:52;3.88;;;1.20;;
71637;SDS011;59485;43.542;-5.676;2022-12-18T16:10:17;4.40;;;0.80;;
71637;SDS011;59485;43.542;-5.676;2022-12-18T16:12:43;3.83;;;0.83;;
71637;SDS011;59485;43.542;-5.676;2022-12-18T16:15:10;3.22;;;0.77;;
71637;SDS011;59485;43.542;-5.676;2022-12-18T16:17:39;4.03;;;1.35;;
71637;SDS011;59485;43.542;-5.676;2022-12-18T16:20:05;4.77;;;1.03;;
71637;SDS011;59485;43.542;-5.676;2022-12-18T16:22:41;3.55;;;1.13;;
71637;SDS011;59485;43.542;-5.676;2022-12-18T16:25:15;3.75;;;0.98;;
71637;SDS011;59485;43.542;-5.676;2022-12-18T16:27:41;3.70;;;1.10;;
71637;SDS011;59485;43.542;-5.676;2022-12-18T16:30:09;4.07;;;1.10;;
71637;SDS011;59485;43.542;-5.676;2022-12-18T16:32:38;3.88;;;1.00;;
71637;SDS011;59485;43.542;-5.676;2022-12-18T16:35:03;4.40;;;1.47;;
71637;SDS011;59485;43.542;-5.676;2022-12-18T16:37:29;4.82;;;1.30;;
71637;SDS011;59485;43.542;-5.676;2022-12-18T16:39:55;4.40;;;1.20;;
71637;SDS011;59485;43.542;-5.676;2022-12-18T16:42:20;4.73;;;1.17;;
71637;SDS011;59485;43.542;-5.676;2022-12-18T16:44:46;5.40;;;1.10;;
71637;SDS011;59485;43.542;-5.676;2022-12-18T16:47:13;3.38;;;0.90;;
71637;SDS011;59485;43.542;-5.676;2022-12-18T16:49:38;4.87;;;0.80;;
71637;SDS011;59485;43.542;-5.676;2022-12-18T16:52:05;4.15;;;1.10;;
71637;SDS011;59485;43.542;-5.676;2022-12-18T16:54:30;4.40;;;1.55;;
71637;SDS011;59485;43.542;-5.676;2022-12-18T16:56:57;4.20;;;0.87;;
71637;SDS011;59485;43.542;-5.676;2022-12-18T16:59:24;4.07;;;1.10;;
71637;SDS011;59485;43.542;-5.676;2022-12-18T17:01:51;3.45;;;0.70;;
71637;SDS011;59485;43.542;-5.676;2022-12-18T17:04:16;3.90;;;1.10;;
71637;SDS011;59485;43.542;-5.676;2022-12-18T17:06:42;4.80;;;1.27;;
71637;SDS011;59485;43.542;-5.676;2022-12-18T17:09:11;4.95;;;2.00;;
71637;SDS011;59485;43.542;-5.676;2022-12-18T17:11:39;4.57;;;1.38;;
71637;SDS011;59485;43.542;-5.676;2022-12-18T17:14:08;4.90;;;1.33;;
71637;SDS011;59485;43.542;-5.676;2022-12-18T17:16:36;5.05;;;1.15;;
71637;SDS011;59485;43.542;-5.676;2022-12-18T17:19:02;5.30;;;1.20;;
71637;SDS011;59485;43.542;-5.676;2022-12-18T17:21:28;5.17;;;1.40;;
71637;SDS011;59485;43.542;-5.676;2022-12-18T17:23:53;4.13;;;1.08;;
71637;SDS011;59485;43.542;-5.676;2022-12-18T17:26:19;5.10;;;1.47;;
71637;SDS011;59485;43.542;-5.676;2022-12-18T17:28:44;4.00;;;1.13;;
71637;SDS011;59485;43.542;-5.676;2022-12-18T17:31:15;7.67;;;1.33;;
71637;SDS011;59485;43.542;-5.676;2022-12-18T17:33:57;3.90;;;0.90;;
71637;SDS011;59485;43.542;-5.676;2022-12-18T17:38:49;5.97;;;2.33;;
71637;SDS011;59485;43.542;-5.676;2022-12-18T17:41:16;4.70;;;1.65;;
71637;SDS011;59485;43.542;-5.676;2022-12-18T17:47:09;5.43;;;1.75;;
71637;SDS011;59485;43.542;-5.676;2022-12-18T17:52:03;7.35;;;2.08;;
71637;SDS011;59485;43.542;-5.676;2022-12-18T17:54:29;7.13;;;2.10;;
71637;SDS011;59485;43.542;-5.676;2022-12-18T17:56:55;7.80;;;1.57;;
71637;SDS011;59485;43.542;-5.676;2022-12-18T17:59:20;5.95;;;1.70;;
71637;SDS011;59485;43.542;-5.676;2022-12-18T18:02:05;6.28;;;1.67;;
71637;SDS011;59485;43.542;-5.676;2022-12-18T18:04:31;8.47;;;2.20;;
71637;SDS011;59485;43.542;-5.676;2022-12-18T18:06:56;7.15;;;2.88;;
71637;SDS011;59485;43.542;-5.676;2022-12-18T18:11:56;6.53;;;2.53;;
71637;SDS011;59485;43.542;-5.676;2022-12-18T18:14:41;8.57;;;2.22;;
71637;SDS011;59485;43.542;-5.676;2022-12-18T18:17:06;5.80;;;2.47;;
71637;SDS011;59485;43.542;-5.676;2022-12-18T18:21:57;8.70;;;2.30;;
71637;SDS011;59485;43.542;-5.676;2022-12-18T18:27:03;5.13;;;1.58;;
71637;SDS011;59485;43.542;-5.676;2022-12-18T18:32:06;6.35;;;1.88;;
71637;SDS011;59485;43.542;-5.676;2022-12-18T18:42:02;5.40;;;2.57;;
71637;SDS011;59485;43.542;-5.676;2022-12-18T18:54:47;5.07;;;2.27;;
71637;SDS011;59485;43.542;-5.676;2022-12-18T18:57:15;8.13;;;3.78;;
71637;SDS011;59485;43.542;-5.676;2022-12-18T19:02:28;5.60;;;1.92;;
71637;SDS011;59485;43.542;-5.676;2022-12-18T19:07:29;5.63;;;2.22;;
71637;SDS011;59485;43.542;-5.676;2022-12-18T19:12:30;8.63;;;3.47;;
71637;SDS011;59485;43.542;-5.676;2022-12-18T19:15:17;6.10;;;2.42;;
71637;SDS011;59485;43.542;-5.676;2022-12-18T19:17:43;6.25;;;2.70;;
71637;SDS011;59485;43.542;-5.676;2022-12-18T19:30:29;10.43;;;4.70;;
71637;SDS011;59485;43.542;-5.676;2022-12-18T19:32:55;13.73;;;5.13;;
71637;SDS011;59485;43.542;-5.676;2022-12-18T19:35:20;12.07;;;4.90;;
71637;SDS011;59485;43.542;-5.676;2022-12-18T19:37:48;11.23;;;4.32;;
71637;SDS011;59485;43.542;-5.676;2022-12-18T19:40:14;10.77;;;4.10;;
71637;SDS011;59485;43.542;-5.676;2022-12-18T19:42:39;9.57;;;3.97;;
71637;SDS011;59485;43.542;-5.676;2022-12-18T19:45:05;11.37;;;4.10;;
71637;SDS011;59485;43.542;-5.676;2022-12-18T19:47:31;7.38;;;2.85;;
71637;SDS011;59485;43.542;-5.676;2022-12-18T19:49:56;11.20;;;3.23;;
71637;SDS011;59485;43.542;-5.676;2022-12-18T19:52:22;8.97;;;3.30;;
71637;SDS011;59485;43.542;-5.676;2022-12-18T19:54:47;10.50;;;4.93;;
71637;SDS011;59485;43.542;-5.676;2022-12-18T19:57:24;11.33;;;4.40;;
71637;SDS011;59485;43.542;-5.676;2022-12-18T19:59:50;9.40;;;4.32;;
71637;SDS011;59485;43.542;-5.676;2022-12-18T20:02:15;10.47;;;4.23;;
71637;SDS011;59485;43.542;-5.676;2022-12-18T20:04:42;8.55;;;3.95;;
71637;SDS011;59485;43.542;-5.676;2022-12-18T20:07:08;9.17;;;4.07;;
71637;SDS011;59485;43.542;-5.676;2022-12-18T20:09:34;8.55;;;3.22;;
71637;SDS011;59485;43.542;-5.676;2022-12-18T20:12:01;8.60;;;3.20;;
71637;SDS011;59485;43.542;-5.676;2022-12-18T20:14:27;7.17;;;3.40;;
71637;SDS011;59485;43.542;-5.676;2022-12-18T20:16:53;6.63;;;3.05;;
71637;SDS011;59485;43.542;-5.676;2022-12-18T20:19:18;5.23;;;2.40;;
71637;SDS011;59485;43.542;-5.676;2022-12-18T20:21:44;7.90;;;3.30;;
71637;SDS011;59485;43.542;-5.676;2022-12-18T20:24:10;9.80;;;4.50;;
71637;SDS011;59485;43.542;-5.676;2022-12-18T20:26:36;10.40;;;4.97;;
71637;SDS011;59485;43.542;-5.676;2022-12-18T20:29:02;8.02;;;4.03;;
71637;SDS011;59485;43.542;-5.676;2022-12-18T20:31:27;5.23;;;1.80;;
71637;SDS011;59485;43.542;-5.676;2022-12-18T20:33:54;5.13;;;1.83;;
71637;SDS011;59485;43.542;-5.676;2022-12-18T20:36:21;4.87;;;1.90;;
71637;SDS011;59485;43.542;-5.676;2022-12-18T20:38:52;6.97;;;2.45;;
71637;SDS011;59485;43.542;-5.676;2022-12-18T20:41:20;5.22;;;1.95;;
71637;SDS011;59485;43.542;-5.676;2022-12-18T20:43:46;5.13;;;1.83;;
71637;SDS011;59485;43.542;-5.676;2022-12-18T20:46:13;5.40;;;1.20;;
71637;SDS011;59485;43.542;-5.676;2022-12-18T20:48:40;4.97;;;1.25;;
71637;SDS011;59485;43.542;-5.676;2022-12-18T20:51:07;4.93;;;1.48;;
71637;SDS011;59485;43.542;-5.676;2022-12-18T20:53:38;5.13;;;1.90;;
71637;SDS011;59485;43.542;-5.676;2022-12-18T20:56:09;6.45;;;2.40;;
71637;SDS011;59485;43.542;-5.676;2022-12-18T20:58:40;3.25;;;0.85;;
71637;SDS011;59485;43.542;-5.676;2022-12-18T21:01:09;3.70;;;0.70;;
71637;SDS011;59485;43.542;-5.676;2022-12-18T21:03:37;2.97;;;0.60;;
71637;SDS011;59485;43.542;-5.676;2022-12-18T21:06:04;3.78;;;0.77;;
71637;SDS011;59485;43.542;-5.676;2022-12-18T21:08:30;5.15;;;0.57;;
71637;SDS011;59485;43.542;-5.676;2022-12-18T21:11:43;3.42;;;0.57;;
71637;SDS011;59485;43.542;-5.676;2022-12-18T21:16:37;3.53;;;0.77;;
71637;SDS011;59485;43.542;-5.676;2022-12-18T21:19:04;4.35;;;1.08;;
71637;SDS011;59485;43.542;-5.676;2022-12-18T21:21:29;4.47;;;1.42;;
71637;SDS011;59485;43.542;-5.676;2022-12-18T21:23:56;5.78;;;1.30;;
71637;SDS011;59485;43.542;-5.676;2022-12-18T21:26:27;4.00;;;1.00;;
71637;SDS011;59485;43.542;-5.676;2022-12-18T21:28:59;3.53;;;0.60;;
71637;SDS011;59485;43.542;-5.676;2022-12-18T21:31:36;6.45;;;1.10;;
71637;SDS011;59485;43.542;-5.676;2022-12-18T21:34:03;7.73;;;0.67;;
71637;SDS011;59485;43.542;-5.676;2022-12-18T21:42:44;3.20;;;0.55;;
71637;SDS011;59485;43.542;-5.676;2022-12-18T22:08:37;4.40;;;0.80;;
71637;SDS011;59485;43.542;-5.676;2022-12-18T22:11:13;4.28;;;0.80;;
71637;SDS011;59485;43.542;-5.676;2022-12-18T22:13:42;3.17;;;0.50;;
71637;SDS011;59485;43.542;-5.676;2022-12-18T22:16:34;2.38;;;0.47;;
71637;SDS011;59485;43.542;-5.676;2022-12-18T22:19:09;4.68;;;0.60;;
71637;SDS011;59485;43.542;-5.676;2022-12-18T22:21:48;2.40;;;0.50;;
71637;SDS011;59485;43.542;-5.676;2022-12-18T22:24:25;3.63;;;0.80;;
71637;SDS011;59485;43.542;-5.676;2022-12-18T22:26:55;2.30;;;0.63;;
71637;SDS011;59485;43.542;-5.676;2022-12-18T22:29:30;4.97;;;0.70;;
71637;SDS011;59485;43.542;-5.676;2022-12-18T22:32:21;4.72;;;0.75;;
71637;SDS011;59485;43.542;-5.676;2022-12-18T22:34:54;3.08;;;0.98;;
71637;SDS011;59485;43.542;-5.676;2022-12-18T22:37:28;3.85;;;1.02;;
71637;SDS011;59485;43.542;-5.676;2022-12-18T22:40:02;2.73;;;0.50;;
71637;SDS011;59485;43.542;-5.676;2022-12-18T22:42:32;3.08;;;0.47;;
71637;SDS011;59485;43.542;-5.676;2022-12-18T22:47:51;3.20;;;0.77;;
71637;SDS011;59485;43.542;-5.676;2022-12-18T22:52:51;2.90;;;0.50;;
71637;SDS011;59485;43.542;-5.676;2022-12-18T22:55:25;2.27;;;0.50;;
71637;SDS011;59485;43.542;-5.676;2022-12-18T23:01:02;3.67;;;0.65;;
71637;SDS011;59485;43.542;-5.676;2022-12-18T23:03:57;3.10;;;0.73;;
71637;SDS011;59485;43.542;-5.676;2022-12-18T23:06:26;4.18;;;1.20;;
71637;SDS011;59485;43.542;-5.676;2022-12-18T23:09:01;2.57;;;0.53;;
71637;SDS011;59485;43.542;-5.676;2022-12-18T23:11:32;3.00;;;0.70;;
71637;SDS011;59485;43.542;-5.676;2022-12-18T23:14:18;2.72;;;0.22;;
71637;SDS011;59485;43.542;-5.676;2022-12-18T23:16:55;5.05;;;0.63;;
71637;SDS011;59485;43.542;-5.676;2022-12-18T23:19:32;2.30;;;0.60;;
71637;SDS011;59485;43.542;-5.676;2022-12-18T23:22:11;3.17;;;0.80;;
71637;SDS011;59485;43.542;-5.676;2022-12-18T23:24:56;2.50;;;0.30;;
71637;SDS011;59485;43.542;-5.676;2022-12-18T23:27:35;3.10;;;0.55;;
71637;SDS011;59485;43.542;-5.676;2022-12-18T23:30:12;3.22;;;0.60;;
71637;SDS011;59485;43.542;-5.676;2022-12-18T23:32:38;5.88;;;0.55;;